sensor_id;sensor_type;location;lat;lon;timestamp;temperature;humidity
6738;DHT22;3406;49.902;8.596;2022-11-15T00:01:07;12.70;92.40
6738;DHT22;3406;49.902;8.596;2022-11-15T00:03:35;12.60;92.30
6738;DHT22;3406;49.902;8.596;2022-11-15T00:06:02;12.60;92.20
6738;DHT22;3406;49.902;8.596;2022-11-15T00:08:30;12.60;92.30
6738;DHT22;3406;49.902;8.596;2022-11-15T00:10:57;12.60;92.20
6738;DHT22;3406;49.902;8.596;2022-11-15T00:13:24;12.60;92.20
6738;DHT22;3406;49.902;8.596;2022-11-15T00:15:52;12.60;92.10
6738;DHT22;3406;49.902;8.596;2022-11-15T00:18:19;12.60;92.00
6738;DHT22;3406;49.902;8.596;2022-11-15T00:20:47;12.60;91.90
6738;DHT22;3406;49.902;8.596;2022-11-15T00:23:13;12.60;91.90
6738;DHT22;3406;49.902;8.596;2022-11-15T00:25:40;12.60;92.10
6738;DHT22;3406;49.902;8.596;2022-11-15T00:28:07;12.60;91.80
6738;DHT22;3406;49.902;8.596;2022-11-15T00:30:34;12.70;91.70
6738;DHT22;3406;49.902;8.596;2022-11-15T00:33:02;12.70;91.70
6738;DHT22;3406;49.902;8.596;2022-11-15T00:35:30;12.70;91.70
6738;DHT22;3406;49.902;8.596;2022-11-15T00:38:00;12.70;91.60
6738;DHT22;3406;49.902;8.596;2022-11-15T00:40:27;12.70;91.60
6738;DHT22;3406;49.902;8.596;2022-11-15T00:42:53;12.70;91.50
6738;DHT22;3406;49.902;8.596;2022-11-15T00:45:20;12.70;91.50
6738;DHT22;3406;49.902;8.596;2022-11-15T00:47:47;12.70;91.50
6738;DHT22;3406;49.902;8.596;2022-11-15T00:50:14;12.70;91.50
6738;DHT22;3406;49.902;8.596;2022-11-15T00:52:41;12.70;91.50
6738;DHT22;3406;49.902;8.596;2022-11-15T00:55:13;12.70;91.60
6738;DHT22;3406;49.902;8.596;2022-11-15T00:57:41;12.70;91.70
6738;DHT22;3406;49.902;8.596;2022-11-15T01:00:08;12.70;91.60
6738;DHT22;3406;49.902;8.596;2022-11-15T01:02:35;12.70;91.70
6738;DHT22;3406;49.902;8.596;2022-11-15T01:05:02;12.60;91.60
6738;DHT22;3406;49.902;8.596;2022-11-15T01:07:29;12.60;91.60
6738;DHT22;3406;49.902;8.596;2022-11-15T01:09:56;12.60;91.70
6738;DHT22;3406;49.902;8.596;2022-11-15T01:12:24;12.60;91.70
6738;DHT22;3406;49.902;8.596;2022-11-15T01:14:51;12.60;91.70
6738;DHT22;3406;49.902;8.596;2022-11-15T01:17:17;12.60;91.80
6738;DHT22;3406;49.902;8.596;2022-11-15T01:19:44;12.60;91.80
6738;DHT22;3406;49.902;8.596;2022-11-15T01:22:11;12.50;91.70
6738;DHT22;3406;49.902;8.596;2022-11-15T01:24:38;12.50;91.80
6738;DHT22;3406;49.902;8.596;2022-11-15T01:27:04;12.50;91.80
6738;DHT22;3406;49.902;8.596;2022-11-15T01:29:32;12.50;91.80
6738;DHT22;3406;49.902;8.596;2022-11-15T01:31:59;12.50;91.90
6738;DHT22;3406;49.902;8.596;2022-11-15T01:34:26;12.50;91.90
6738;DHT22;3406;49.902;8.596;2022-11-15T01:36:52;12.50;91.90
6738;DHT22;3406;49.902;8.596;2022-11-15T01:39:19;12.50;91.90
6738;DHT22;3406;49.902;8.596;2022-11-15T01:41:46;12.50;91.90
6738;DHT22;3406;49.902;8.596;2022-11-15T01:44:39;12.60;91.90
6738;DHT22;3406;49.902;8.596;2022-11-15T01:47:09;12.50;91.90
6738;DHT22;3406;49.902;8.596;2022-11-15T01:49:39;12.50;91.80
6738;DHT22;3406;49.902;8.596;2022-11-15T01:52:09;12.60;91.90
6738;DHT22;3406;49.902;8.596;2022-11-15T01:54:36;12.60;91.90
6738;DHT22;3406;49.902;8.596;2022-11-15T01:57:06;12.60;91.90
6738;DHT22;3406;49.902;8.596;2022-11-15T01:59:33;12.60;91.90
6738;DHT22;3406;49.902;8.596;2022-11-15T02:02:02;12.60;91.80
6738;DHT22;3406;49.902;8.596;2022-11-15T02:04:31;12.60;91.80
6738;DHT22;3406;49.902;8.596;2022-11-15T02:06:59;12.60;91.80
6738;DHT22;3406;49.902;8.596;2022-11-15T02:09:28;12.70;91.90
6738;DHT22;3406;49.902;8.596;2022-11-15T02:11:56;12.70;91.80
6738;DHT22;3406;49.902;8.596;2022-11-15T02:14:23;12.70;91.80
6738;DHT22;3406;49.902;8.596;2022-11-15T02:16:57;12.70;91.80
6738;DHT22;3406;49.902;8.596;2022-11-15T02:22:30;12.60;91.80
6738;DHT22;3406;49.902;8.596;2022-11-15T02:25:11;12.60;91.90
6738;DHT22;3406;49.902;8.596;2022-11-15T02:28:07;12.60;91.90
6738;DHT22;3406;49.902;8.596;2022-11-15T02:30:41;12.60;91.90
6738;DHT22;3406;49.902;8.596;2022-11-15T02:33:16;12.60;91.90
6738;DHT22;3406;49.902;8.596;2022-11-15T02:35:52;12.50;91.90
6738;DHT22;3406;49.902;8.596;2022-11-15T02:38:30;12.40;91.90
6738;DHT22;3406;49.902;8.596;2022-11-15T02:41:02;12.30;92.00
6738;DHT22;3406;49.902;8.596;2022-11-15T02:43:33;12.30;92.10
6738;DHT22;3406;49.902;8.596;2022-11-15T02:46:24;12.20;92.10
6738;DHT22;3406;49.902;8.596;2022-11-15T02:49:14;12.20;92.30
6738;DHT22;3406;49.902;8.596;2022-11-15T02:51:43;12.10;92.20
6738;DHT22;3406;49.902;8.596;2022-11-15T02:54:12;12.10;92.30
6738;DHT22;3406;49.902;8.596;2022-11-15T02:56:40;12.00;92.30
6738;DHT22;3406;49.902;8.596;2022-11-15T02:59:18;12.00;92.30
6738;DHT22;3406;49.902;8.596;2022-11-15T03:02:00;11.90;92.30
6738;DHT22;3406;49.902;8.596;2022-11-15T03:04:37;11.90;92.40
6738;DHT22;3406;49.902;8.596;2022-11-15T03:07:11;11.80;92.50
6738;DHT22;3406;49.902;8.596;2022-11-15T03:09:44;11.80;92.50
6738;DHT22;3406;49.902;8.596;2022-11-15T03:12:21;11.70;92.50
6738;DHT22;3406;49.902;8.596;2022-11-15T03:14:55;11.70;92.60
6738;DHT22;3406;49.902;8.596;2022-11-15T03:17:27;11.60;92.70
6738;DHT22;3406;49.902;8.596;2022-11-15T03:19:57;11.60;92.80
6738;DHT22;3406;49.902;8.596;2022-11-15T03:22:26;11.60;92.80
6738;DHT22;3406;49.902;8.596;2022-11-15T03:24:58;11.50;92.80
6738;DHT22;3406;49.902;8.596;2022-11-15T03:27:30;11.50;93.20
6738;DHT22;3406;49.902;8.596;2022-11-15T03:30:00;11.50;92.90
6738;DHT22;3406;49.902;8.596;2022-11-15T03:32:36;11.50;93.00
6738;DHT22;3406;49.902;8.596;2022-11-15T03:35:08;11.40;93.00
6738;DHT22;3406;49.902;8.596;2022-11-15T03:37:37;11.40;93.10
6738;DHT22;3406;49.902;8.596;2022-11-15T03:40:06;11.40;93.10
6738;DHT22;3406;49.902;8.596;2022-11-15T03:42:36;11.40;93.20
6738;DHT22;3406;49.902;8.596;2022-11-15T03:45:13;11.40;93.50
6738;DHT22;3406;49.902;8.596;2022-11-15T03:47:46;11.50;93.50
6738;DHT22;3406;49.902;8.596;2022-11-15T03:50:18;11.50;93.50
6738;DHT22;3406;49.902;8.596;2022-11-15T03:52:46;11.50;93.50
6738;DHT22;3406;49.902;8.596;2022-11-15T03:55:17;11.50;93.60
6738;DHT22;3406;49.902;8.596;2022-11-15T03:57:44;11.50;93.60
6738;DHT22;3406;49.902;8.596;2022-11-15T04:00:12;11.50;93.60
6738;DHT22;3406;49.902;8.596;2022-11-15T04:02:39;11.50;93.70
6738;DHT22;3406;49.902;8.596;2022-11-15T04:05:07;11.50;93.70
6738;DHT22;3406;49.902;8.596;2022-11-15T04:07:34;11.50;93.80
6738;DHT22;3406;49.902;8.596;2022-11-15T04:10:01;11.50;93.90
6738;DHT22;3406;49.902;8.596;2022-11-15T04:12:31;11.50;94.00
6738;DHT22;3406;49.902;8.596;2022-11-15T04:15:03;11.50;94.00
6738;DHT22;3406;49.902;8.596;2022-11-15T04:17:34;11.50;94.10
6738;DHT22;3406;49.902;8.596;2022-11-15T04:20:01;11.60;94.10
6738;DHT22;3406;49.902;8.596;2022-11-15T04:22:46;11.60;94.20
6738;DHT22;3406;49.902;8.596;2022-11-15T04:25:30;11.60;94.20
6738;DHT22;3406;49.902;8.596;2022-11-15T04:27:57;11.60;94.20
6738;DHT22;3406;49.902;8.596;2022-11-15T04:30:23;11.50;94.20
6738;DHT22;3406;49.902;8.596;2022-11-15T04:32:50;11.50;94.20
6738;DHT22;3406;49.902;8.596;2022-11-15T04:35:16;11.50;94.30
6738;DHT22;3406;49.902;8.596;2022-11-15T04:37:43;11.50;94.30
6738;DHT22;3406;49.902;8.596;2022-11-15T04:40:11;11.50;94.30
6738;DHT22;3406;49.902;8.596;2022-11-15T04:42:40;11.50;94.30
6738;DHT22;3406;49.902;8.596;2022-11-15T04:45:07;11.40;94.40
6738;DHT22;3406;49.902;8.596;2022-11-15T04:47:34;11.40;94.50
6738;DHT22;3406;49.902;8.596;2022-11-15T04:50:01;11.40;94.70
6738;DHT22;3406;49.902;8.596;2022-11-15T04:52:27;11.40;94.80
6738;DHT22;3406;49.902;8.596;2022-11-15T04:54:54;11.40;94.80
6738;DHT22;3406;49.902;8.596;2022-11-15T04:57:22;11.40;94.80
6738;DHT22;3406;49.902;8.596;2022-11-15T04:59:48;11.40;94.90
6738;DHT22;3406;49.902;8.596;2022-11-15T05:02:15;11.50;95.00
6738;DHT22;3406;49.902;8.596;2022-11-15T05:04:42;11.50;95.00
6738;DHT22;3406;49.902;8.596;2022-11-15T05:07:07;11.50;95.00
6738;DHT22;3406;49.902;8.596;2022-11-15T05:09:34;11.50;95.00
6738;DHT22;3406;49.902;8.596;2022-11-15T05:12:01;11.50;95.10
6738;DHT22;3406;49.902;8.596;2022-11-15T05:14:29;11.50;95.20
6738;DHT22;3406;49.902;8.596;2022-11-15T05:16:55;11.40;95.20
6738;DHT22;3406;49.902;8.596;2022-11-15T05:19:23;11.50;95.40
6738;DHT22;3406;49.902;8.596;2022-11-15T05:21:49;11.40;95.40
6738;DHT22;3406;49.902;8.596;2022-11-15T05:24:16;11.40;95.50
6738;DHT22;3406;49.902;8.596;2022-11-15T05:26:43;11.40;95.60
6738;DHT22;3406;49.902;8.596;2022-11-15T05:29:09;11.40;95.70
6738;DHT22;3406;49.902;8.596;2022-11-15T05:31:40;11.40;96.10
6738;DHT22;3406;49.902;8.596;2022-11-15T05:34:08;11.40;95.90
6738;DHT22;3406;49.902;8.596;2022-11-15T05:36:36;11.40;96.00
6738;DHT22;3406;49.902;8.596;2022-11-15T05:39:05;11.40;96.00
6738;DHT22;3406;49.902;8.596;2022-11-15T05:41:35;11.40;96.20
6738;DHT22;3406;49.902;8.596;2022-11-15T05:44:06;11.30;96.30
6738;DHT22;3406;49.902;8.596;2022-11-15T05:46:34;11.40;96.50
6738;DHT22;3406;49.902;8.596;2022-11-15T05:49:05;11.40;96.50
6738;DHT22;3406;49.902;8.596;2022-11-15T05:51:34;11.40;96.60
6738;DHT22;3406;49.902;8.596;2022-11-15T05:54:01;11.40;96.70
6738;DHT22;3406;49.902;8.596;2022-11-15T05:56:28;11.40;96.70
6738;DHT22;3406;49.902;8.596;2022-11-15T05:58:56;11.40;96.80
6738;DHT22;3406;49.902;8.596;2022-11-15T06:01:25;11.40;96.90
6738;DHT22;3406;49.902;8.596;2022-11-15T06:03:52;11.40;97.00
6738;DHT22;3406;49.902;8.596;2022-11-15T06:06:20;11.50;97.10
6738;DHT22;3406;49.902;8.596;2022-11-15T06:08:47;11.50;97.10
6738;DHT22;3406;49.902;8.596;2022-11-15T06:11:14;11.50;97.20
6738;DHT22;3406;49.902;8.596;2022-11-15T06:13:41;11.50;97.20
6738;DHT22;3406;49.902;8.596;2022-11-15T06:16:07;11.50;97.40
6738;DHT22;3406;49.902;8.596;2022-11-15T06:18:35;11.50;97.50
6738;DHT22;3406;49.902;8.596;2022-11-15T06:21:02;11.60;97.50
6738;DHT22;3406;49.902;8.596;2022-11-15T06:23:31;11.60;97.60
6738;DHT22;3406;49.902;8.596;2022-11-15T06:25:59;11.60;97.60
6738;DHT22;3406;49.902;8.596;2022-11-15T06:28:28;11.60;97.60
6738;DHT22;3406;49.902;8.596;2022-11-15T06:30:55;11.70;97.70
6738;DHT22;3406;49.902;8.596;2022-11-15T06:33:21;11.70;97.70
6738;DHT22;3406;49.902;8.596;2022-11-15T06:35:48;11.70;97.80
6738;DHT22;3406;49.902;8.596;2022-11-15T06:38:15;11.70;97.90
6738;DHT22;3406;49.902;8.596;2022-11-15T06:40:42;11.70;97.90
6738;DHT22;3406;49.902;8.596;2022-11-15T06:43:09;11.70;97.90
6738;DHT22;3406;49.902;8.596;2022-11-15T06:45:36;11.70;97.90
6738;DHT22;3406;49.902;8.596;2022-11-15T06:48:03;11.70;98.00
6738;DHT22;3406;49.902;8.596;2022-11-15T06:50:29;11.70;98.00
6738;DHT22;3406;49.902;8.596;2022-11-15T06:53:01;11.70;98.10
6738;DHT22;3406;49.902;8.596;2022-11-15T06:55:28;11.70;98.20
6738;DHT22;3406;49.902;8.596;2022-11-15T06:57:56;11.70;98.30
6738;DHT22;3406;49.902;8.596;2022-11-15T07:00:23;11.70;98.30
6738;DHT22;3406;49.902;8.596;2022-11-15T07:02:50;11.60;98.30
6738;DHT22;3406;49.902;8.596;2022-11-15T07:05:17;11.60;98.40
6738;DHT22;3406;49.902;8.596;2022-11-15T07:07:45;11.60;98.50
6738;DHT22;3406;49.902;8.596;2022-11-15T07:10:17;11.60;98.50
6738;DHT22;3406;49.902;8.596;2022-11-15T07:12:46;11.60;98.50
6738;DHT22;3406;49.902;8.596;2022-11-15T07:15:15;11.60;98.50
6738;DHT22;3406;49.902;8.596;2022-11-15T07:17:42;11.60;98.60
6738;DHT22;3406;49.902;8.596;2022-11-15T07:20:09;11.60;98.60
6738;DHT22;3406;49.902;8.596;2022-11-15T07:22:36;11.70;98.80
6738;DHT22;3406;49.902;8.596;2022-11-15T07:25:03;11.70;98.80
6738;DHT22;3406;49.902;8.596;2022-11-15T07:27:29;11.70;98.80
6738;DHT22;3406;49.902;8.596;2022-11-15T07:29:56;11.80;99.00
6738;DHT22;3406;49.902;8.596;2022-11-15T07:32:24;11.80;99.00
6738;DHT22;3406;49.902;8.596;2022-11-15T07:34:51;11.90;99.00
6738;DHT22;3406;49.902;8.596;2022-11-15T07:37:17;11.90;99.00
6738;DHT22;3406;49.902;8.596;2022-11-15T07:39:44;12.00;98.90
6738;DHT22;3406;49.902;8.596;2022-11-15T07:42:11;12.00;98.90
6738;DHT22;3406;49.902;8.596;2022-11-15T07:44:55;12.00;99.00
6738;DHT22;3406;49.902;8.596;2022-11-15T07:47:21;12.00;99.00
6738;DHT22;3406;49.902;8.596;2022-11-15T07:49:50;12.10;99.00
6738;DHT22;3406;49.902;8.596;2022-11-15T07:52:17;12.10;99.00
6738;DHT22;3406;49.902;8.596;2022-11-15T07:54:44;12.20;99.00
6738;DHT22;3406;49.902;8.596;2022-11-15T07:57:10;12.20;99.00
6738;DHT22;3406;49.902;8.596;2022-11-15T07:59:37;12.30;99.00
6738;DHT22;3406;49.902;8.596;2022-11-15T08:02:03;12.30;98.90
6738;DHT22;3406;49.902;8.596;2022-11-15T08:04:30;12.30;98.80
6738;DHT22;3406;49.902;8.596;2022-11-15T08:06:58;12.30;98.80
6738;DHT22;3406;49.902;8.596;2022-11-15T08:09:25;12.40;98.80
6738;DHT22;3406;49.902;8.596;2022-11-15T08:11:51;12.40;98.70
6738;DHT22;3406;49.902;8.596;2022-11-15T08:14:18;12.50;98.70
6738;DHT22;3406;49.902;8.596;2022-11-15T08:16:47;12.50;98.60
6738;DHT22;3406;49.902;8.596;2022-11-15T08:19:14;12.60;98.40
6738;DHT22;3406;49.902;8.596;2022-11-15T08:21:40;12.60;98.30
6738;DHT22;3406;49.902;8.596;2022-11-15T08:24:09;12.60;98.20
6738;DHT22;3406;49.902;8.596;2022-11-15T08:26:36;12.70;98.20
6738;DHT22;3406;49.902;8.596;2022-11-15T08:29:03;12.70;98.10
6738;DHT22;3406;49.902;8.596;2022-11-15T08:31:30;12.70;98.00
6738;DHT22;3406;49.902;8.596;2022-11-15T08:33:56;12.70;98.00
6738;DHT22;3406;49.902;8.596;2022-11-15T08:36:23;12.70;97.90
6738;DHT22;3406;49.902;8.596;2022-11-15T08:38:50;12.80;97.90
6738;DHT22;3406;49.902;8.596;2022-11-15T08:41:24;12.80;97.80
6738;DHT22;3406;49.902;8.596;2022-11-15T08:43:52;12.80;97.60
6738;DHT22;3406;49.902;8.596;2022-11-15T08:46:18;12.80;97.60
6738;DHT22;3406;49.902;8.596;2022-11-15T08:48:45;12.80;97.50
6738;DHT22;3406;49.902;8.596;2022-11-15T08:51:12;12.80;97.50
6738;DHT22;3406;49.902;8.596;2022-11-15T08:53:38;12.80;97.50
6738;DHT22;3406;49.902;8.596;2022-11-15T08:56:07;12.90;97.50
6738;DHT22;3406;49.902;8.596;2022-11-15T08:58:35;12.90;97.50
6738;DHT22;3406;49.902;8.596;2022-11-15T09:01:03;12.90;97.40
6738;DHT22;3406;49.902;8.596;2022-11-15T09:03:30;13.00;97.40
6738;DHT22;3406;49.902;8.596;2022-11-15T09:05:58;12.90;97.20
6738;DHT22;3406;49.902;8.596;2022-11-15T09:08:25;13.00;97.20
6738;DHT22;3406;49.902;8.596;2022-11-15T09:10:55;13.10;97.20
6738;DHT22;3406;49.902;8.596;2022-11-15T09:13:22;13.10;97.10
6738;DHT22;3406;49.902;8.596;2022-11-15T09:15:50;13.10;97.00
6738;DHT22;3406;49.902;8.596;2022-11-15T09:18:16;13.20;96.90
6738;DHT22;3406;49.902;8.596;2022-11-15T09:20:43;13.20;96.80
6738;DHT22;3406;49.902;8.596;2022-11-15T09:23:10;13.20;96.80
6738;DHT22;3406;49.902;8.596;2022-11-15T09:25:36;13.20;96.70
6738;DHT22;3406;49.902;8.596;2022-11-15T09:28:06;13.20;96.60
6738;DHT22;3406;49.902;8.596;2022-11-15T09:30:33;13.20;96.60
6738;DHT22;3406;49.902;8.596;2022-11-15T09:33:06;13.20;96.60
6738;DHT22;3406;49.902;8.596;2022-11-15T09:35:35;13.30;96.60
6738;DHT22;3406;49.902;8.596;2022-11-15T09:38:02;13.30;96.60
6738;DHT22;3406;49.902;8.596;2022-11-15T09:40:30;13.20;96.40
6738;DHT22;3406;49.902;8.596;2022-11-15T09:43:06;13.20;96.40
6738;DHT22;3406;49.902;8.596;2022-11-15T09:45:41;13.20;96.50
6738;DHT22;3406;49.902;8.596;2022-11-15T09:48:27;13.30;96.60
6738;DHT22;3406;49.902;8.596;2022-11-15T09:51:02;13.30;96.60
6738;DHT22;3406;49.902;8.596;2022-11-15T09:53:36;13.40;96.70
6738;DHT22;3406;49.902;8.596;2022-11-15T09:56:15;13.40;96.60
6738;DHT22;3406;49.902;8.596;2022-11-15T09:58:46;13.40;96.60
6738;DHT22;3406;49.902;8.596;2022-11-15T10:01:22;13.40;96.40
6738;DHT22;3406;49.902;8.596;2022-11-15T10:03:56;13.40;96.40
6738;DHT22;3406;49.902;8.596;2022-11-15T10:06:25;13.50;96.50
6738;DHT22;3406;49.902;8.596;2022-11-15T10:08:57;13.50;96.50
6738;DHT22;3406;49.902;8.596;2022-11-15T10:11:27;13.50;96.50
6738;DHT22;3406;49.902;8.596;2022-11-15T10:13:56;13.50;96.50
6738;DHT22;3406;49.902;8.596;2022-11-15T10:16:49;13.60;96.50
6738;DHT22;3406;49.902;8.596;2022-11-15T10:19:25;13.70;96.50
6738;DHT22;3406;49.902;8.596;2022-11-15T10:22:03;13.80;96.50
6738;DHT22;3406;49.902;8.596;2022-11-15T10:24:35;13.80;96.40
6738;DHT22;3406;49.902;8.596;2022-11-15T10:27:09;13.80;96.30
6738;DHT22;3406;49.902;8.596;2022-11-15T10:29:42;13.80;96.40
6738;DHT22;3406;49.902;8.596;2022-11-15T10:32:11;13.80;96.40
6738;DHT22;3406;49.902;8.596;2022-11-15T10:34:39;13.80;96.40
6738;DHT22;3406;49.902;8.596;2022-11-15T10:37:06;13.80;96.40
6738;DHT22;3406;49.902;8.596;2022-11-15T10:39:32;13.90;96.40
6738;DHT22;3406;49.902;8.596;2022-11-15T10:42:15;13.90;96.30
6738;DHT22;3406;49.902;8.596;2022-11-15T10:44:43;13.90;96.40
6738;DHT22;3406;49.902;8.596;2022-11-15T10:47:25;13.90;96.40
6738;DHT22;3406;49.902;8.596;2022-11-15T10:49:59;13.90;96.40
6738;DHT22;3406;49.902;8.596;2022-11-15T10:52:27;13.90;96.40
6738;DHT22;3406;49.902;8.596;2022-11-15T10:54:58;13.90;96.30
6738;DHT22;3406;49.902;8.596;2022-11-15T10:57:31;13.90;96.30
6738;DHT22;3406;49.902;8.596;2022-11-15T11:00:01;13.90;96.30
6738;DHT22;3406;49.902;8.596;2022-11-15T11:02:31;13.90;96.40
6738;DHT22;3406;49.902;8.596;2022-11-15T11:05:00;13.90;96.40
6738;DHT22;3406;49.902;8.596;2022-11-15T11:07:29;14.00;96.40
6738;DHT22;3406;49.902;8.596;2022-11-15T11:09:58;14.00;96.40
6738;DHT22;3406;49.902;8.596;2022-11-15T11:12:28;14.00;96.40
6738;DHT22;3406;49.902;8.596;2022-11-15T11:14:55;14.00;96.40
6738;DHT22;3406;49.902;8.596;2022-11-15T11:17:28;14.10;96.40
6738;DHT22;3406;49.902;8.596;2022-11-15T11:20:03;14.10;96.30
6738;DHT22;3406;49.902;8.596;2022-11-15T11:22:39;14.20;96.30
6738;DHT22;3406;49.902;8.596;2022-11-15T11:25:23;14.20;96.20
6738;DHT22;3406;49.902;8.596;2022-11-15T11:28:00;14.30;96.20
6738;DHT22;3406;49.902;8.596;2022-11-15T11:30:38;14.30;96.00
6738;DHT22;3406;49.902;8.596;2022-11-15T11:33:16;14.40;95.90
6738;DHT22;3406;49.902;8.596;2022-11-15T11:35:51;14.40;95.70
6738;DHT22;3406;49.902;8.596;2022-11-15T11:38:30;14.40;95.60
6738;DHT22;3406;49.902;8.596;2022-11-15T11:41:04;14.40;95.60
6738;DHT22;3406;49.902;8.596;2022-11-15T11:43:39;14.40;95.70
6738;DHT22;3406;49.902;8.596;2022-11-15T11:46:34;14.50;95.60
6738;DHT22;3406;49.902;8.596;2022-11-15T11:49:08;14.60;95.60
6738;DHT22;3406;49.902;8.596;2022-11-15T11:51:41;14.60;95.50
6738;DHT22;3406;49.902;8.596;2022-11-15T11:54:13;14.60;95.50
6738;DHT22;3406;49.902;8.596;2022-11-15T11:56:46;14.70;95.40
6738;DHT22;3406;49.902;8.596;2022-11-15T11:59:19;14.80;95.30
6738;DHT22;3406;49.902;8.596;2022-11-15T12:01:48;14.80;95.20
6738;DHT22;3406;49.902;8.596;2022-11-15T12:04:18;14.80;95.10
6738;DHT22;3406;49.902;8.596;2022-11-15T12:06:50;14.90;95.00
6738;DHT22;3406;49.902;8.596;2022-11-15T12:09:21;14.90;94.80
6738;DHT22;3406;49.902;8.596;2022-11-15T12:11:55;15.00;94.80
6738;DHT22;3406;49.902;8.596;2022-11-15T12:14:31;15.00;94.60
6738;DHT22;3406;49.902;8.596;2022-11-15T12:16:58;15.10;94.60
6738;DHT22;3406;49.902;8.596;2022-11-15T12:19:25;15.10;94.50
6738;DHT22;3406;49.902;8.596;2022-11-15T12:22:00;15.10;94.30
6738;DHT22;3406;49.902;8.596;2022-11-15T12:24:32;15.20;94.20
6738;DHT22;3406;49.902;8.596;2022-11-15T12:27:02;15.20;94.00
6738;DHT22;3406;49.902;8.596;2022-11-15T12:29:35;15.20;93.90
6738;DHT22;3406;49.902;8.596;2022-11-15T12:32:03;15.30;93.80
6738;DHT22;3406;49.902;8.596;2022-11-15T12:34:43;15.30;93.60
6738;DHT22;3406;49.902;8.596;2022-11-15T12:40:22;15.30;93.20
6738;DHT22;3406;49.902;8.596;2022-11-15T12:46:04;15.20;92.70
6738;DHT22;3406;49.902;8.596;2022-11-15T12:48:56;15.20;92.60
6738;DHT22;3406;49.902;8.596;2022-11-15T12:54:50;15.10;92.50
6738;DHT22;3406;49.902;8.596;2022-11-15T12:57:38;15.00;92.30
6738;DHT22;3406;49.902;8.596;2022-11-15T13:03:26;14.90;92.50
6738;DHT22;3406;49.902;8.596;2022-11-15T13:06:07;14.90;92.60
6738;DHT22;3406;49.902;8.596;2022-11-15T13:11:56;14.80;92.60
6738;DHT22;3406;49.902;8.596;2022-11-15T13:14:48;14.80;92.70
6738;DHT22;3406;49.902;8.596;2022-11-15T13:17:34;14.80;92.70
6738;DHT22;3406;49.902;8.596;2022-11-15T13:20:23;14.80;92.70
6738;DHT22;3406;49.902;8.596;2022-11-15T13:22:58;14.80;92.80
6738;DHT22;3406;49.902;8.596;2022-11-15T13:26:03;14.80;92.80
6738;DHT22;3406;49.902;8.596;2022-11-15T13:28:34;14.80;92.80
6738;DHT22;3406;49.902;8.596;2022-11-15T13:31:21;14.70;92.80
6738;DHT22;3406;49.902;8.596;2022-11-15T13:33:48;14.80;92.90
6738;DHT22;3406;49.902;8.596;2022-11-15T13:39:37;14.70;92.80
6738;DHT22;3406;49.902;8.596;2022-11-15T13:42:04;14.70;92.70
6738;DHT22;3406;49.902;8.596;2022-11-15T13:44:32;14.80;92.80
6738;DHT22;3406;49.902;8.596;2022-11-15T13:47:06;14.80;92.70
6738;DHT22;3406;49.902;8.596;2022-11-15T13:49:34;14.80;92.70
6738;DHT22;3406;49.902;8.596;2022-11-15T13:52:03;14.80;92.70
6738;DHT22;3406;49.902;8.596;2022-11-15T13:54:34;14.80;92.60
6738;DHT22;3406;49.902;8.596;2022-11-15T13:57:03;14.80;92.60
6738;DHT22;3406;49.902;8.596;2022-11-15T13:59:32;14.80;92.50
6738;DHT22;3406;49.902;8.596;2022-11-15T14:02:11;14.80;92.50
6738;DHT22;3406;49.902;8.596;2022-11-15T14:04:45;14.80;92.40
6738;DHT22;3406;49.902;8.596;2022-11-15T14:07:16;14.90;92.40
6738;DHT22;3406;49.902;8.596;2022-11-15T14:09:44;14.90;92.30
6738;DHT22;3406;49.902;8.596;2022-11-15T14:12:25;14.80;92.30
6738;DHT22;3406;49.902;8.596;2022-11-15T14:14:53;14.80;92.30
6738;DHT22;3406;49.902;8.596;2022-11-15T14:17:33;14.90;92.30
6738;DHT22;3406;49.902;8.596;2022-11-15T14:20:00;14.90;92.20
6738;DHT22;3406;49.902;8.596;2022-11-15T14:22:28;14.90;92.20
6738;DHT22;3406;49.902;8.596;2022-11-15T14:25:15;14.90;92.20
6738;DHT22;3406;49.902;8.596;2022-11-15T14:27:43;14.90;92.20
6738;DHT22;3406;49.902;8.596;2022-11-15T14:30:14;14.90;92.20
6738;DHT22;3406;49.902;8.596;2022-11-15T14:32:45;15.00;92.10
6738;DHT22;3406;49.902;8.596;2022-11-15T14:35:15;15.00;92.10
6738;DHT22;3406;49.902;8.596;2022-11-15T14:37:42;15.00;92.10
6738;DHT22;3406;49.902;8.596;2022-11-15T14:40:12;15.00;92.10
6738;DHT22;3406;49.902;8.596;2022-11-15T14:42:39;14.90;92.10
6738;DHT22;3406;49.902;8.596;2022-11-15T14:45:10;14.80;92.10
6738;DHT22;3406;49.902;8.596;2022-11-15T14:47:37;14.90;92.10
6738;DHT22;3406;49.902;8.596;2022-11-15T14:50:06;14.80;92.10
6738;DHT22;3406;49.902;8.596;2022-11-15T14:52:33;14.80;92.10
6738;DHT22;3406;49.902;8.596;2022-11-15T14:55:02;14.90;92.20
6738;DHT22;3406;49.902;8.596;2022-11-15T14:57:29;14.90;92.20
6738;DHT22;3406;49.902;8.596;2022-11-15T14:59:56;14.90;92.10
6738;DHT22;3406;49.902;8.596;2022-11-15T15:02:25;14.80;92.00
6738;DHT22;3406;49.902;8.596;2022-11-15T15:04:53;14.80;92.00
6738;DHT22;3406;49.902;8.596;2022-11-15T15:07:22;14.80;92.00
6738;DHT22;3406;49.902;8.596;2022-11-15T15:09:49;14.80;92.10
6738;DHT22;3406;49.902;8.596;2022-11-15T15:12:17;14.80;92.10
6738;DHT22;3406;49.902;8.596;2022-11-15T15:14:44;14.80;92.50
6738;DHT22;3406;49.902;8.596;2022-11-15T15:17:11;14.80;92.20
6738;DHT22;3406;49.902;8.596;2022-11-15T15:19:38;14.80;92.20
6738;DHT22;3406;49.902;8.596;2022-11-15T15:22:05;14.80;92.20
6738;DHT22;3406;49.902;8.596;2022-11-15T15:24:33;14.80;92.20
6738;DHT22;3406;49.902;8.596;2022-11-15T15:26:59;14.80;92.20
6738;DHT22;3406;49.902;8.596;2022-11-15T15:29:26;14.70;92.20
6738;DHT22;3406;49.902;8.596;2022-11-15T15:31:53;14.60;92.20
6738;DHT22;3406;49.902;8.596;2022-11-15T15:34:19;14.50;92.20
6738;DHT22;3406;49.902;8.596;2022-11-15T15:36:46;14.50;92.30
6738;DHT22;3406;49.902;8.596;2022-11-15T15:39:13;14.50;92.50
6738;DHT22;3406;49.902;8.596;2022-11-15T15:41:41;14.50;92.50
6738;DHT22;3406;49.902;8.596;2022-11-15T15:44:07;14.40;92.60
6738;DHT22;3406;49.902;8.596;2022-11-15T15:46:34;14.40;92.70
6738;DHT22;3406;49.902;8.596;2022-11-15T15:49:01;14.50;92.80
6738;DHT22;3406;49.902;8.596;2022-11-15T15:51:28;14.40;92.80
6738;DHT22;3406;49.902;8.596;2022-11-15T15:53:54;14.40;92.90
6738;DHT22;3406;49.902;8.596;2022-11-15T15:56:23;14.40;93.00
6738;DHT22;3406;49.902;8.596;2022-11-15T15:58:51;14.30;93.00
6738;DHT22;3406;49.902;8.596;2022-11-15T16:01:18;14.30;93.10
6738;DHT22;3406;49.902;8.596;2022-11-15T16:03:45;14.30;93.10
6738;DHT22;3406;49.902;8.596;2022-11-15T16:06:39;14.30;93.20
6738;DHT22;3406;49.902;8.596;2022-11-15T16:09:12;14.30;93.20
6738;DHT22;3406;49.902;8.596;2022-11-15T16:11:40;14.30;93.30
6738;DHT22;3406;49.902;8.596;2022-11-15T16:14:08;14.30;93.30
6738;DHT22;3406;49.902;8.596;2022-11-15T16:16:35;14.20;93.30
6738;DHT22;3406;49.902;8.596;2022-11-15T16:19:03;14.30;93.70
6738;DHT22;3406;49.902;8.596;2022-11-15T16:21:30;14.30;93.70
6738;DHT22;3406;49.902;8.596;2022-11-15T16:23:56;14.30;93.60
6738;DHT22;3406;49.902;8.596;2022-11-15T16:26:25;14.30;93.70
6738;DHT22;3406;49.902;8.596;2022-11-15T16:28:53;14.40;93.90
6738;DHT22;3406;49.902;8.596;2022-11-15T16:31:21;14.40;93.90
6738;DHT22;3406;49.902;8.596;2022-11-15T16:33:47;14.30;93.80
6738;DHT22;3406;49.902;8.596;2022-11-15T16:36:19;14.30;93.90
6738;DHT22;3406;49.902;8.596;2022-11-15T16:38:46;14.30;94.00
6738;DHT22;3406;49.902;8.596;2022-11-15T16:41:13;14.30;94.00
6738;DHT22;3406;49.902;8.596;2022-11-15T16:43:42;14.30;94.00